createdAt,value
2023-11-21T00:01:23.199Z,5.72
2023-11-21T00:04:10.468Z,4.43
2023-11-21T00:06:56.561Z,5.13
2023-11-21T00:09:42.880Z,4.18
2023-11-21T00:12:30.504Z,4.65
2023-11-21T00:15:16.908Z,5.68
2023-11-21T00:18:02.336Z,4.63
2023-11-21T00:20:48.903Z,4.18
2023-11-21T00:23:34.359Z,4.25
2023-11-21T00:26:21.997Z,5.38
2023-11-21T00:29:18.593Z,8.07
2023-11-21T00:32:06.817Z,4.15
2023-11-21T00:34:52.362Z,4.25
2023-11-21T00:37:40.344Z,5.10
2023-11-21T00:40:25.934Z,6.30
2023-11-21T00:43:11.636Z,5.38
2023-11-21T00:45:58.508Z,4.45
2023-11-21T00:48:44.250Z,4.40
2023-11-21T00:51:29.836Z,7.63
2023-11-21T00:54:18.269Z,5.25
2023-11-21T00:57:04.570Z,5.45
2023-11-21T00:59:52.002Z,4.53
2023-11-21T01:02:38.181Z,3.53
2023-11-21T01:05:24.240Z,3.80
2023-11-21T01:08:09.765Z,3.95
2023-11-21T01:10:56.753Z,5.68
2023-11-21T01:13:43.716Z,4.05
2023-11-21T01:16:29.722Z,4.82
2023-11-21T01:19:16.291Z,3.97
2023-11-21T01:22:02.583Z,3.38
2023-11-21T01:24:48.800Z,3.50
2023-11-21T01:27:37.248Z,3.42
2023-11-21T01:30:23.124Z,4.07
2023-11-21T01:33:10.067Z,5.57
2023-11-21T01:35:56.039Z,3.97
2023-11-21T01:38:41.916Z,4.20
2023-11-21T01:41:29.636Z,3.33
2023-11-21T01:44:15.693Z,8.88
2023-11-21T01:47:05.982Z,5.63
2023-11-21T01:49:52.285Z,3.88
2023-11-21T01:52:38.294Z,4.25
2023-11-21T01:55:27.989Z,4.32
2023-11-21T01:58:15.018Z,4.15
2023-11-21T02:01:01.470Z,5.07
2023-11-21T02:03:48.590Z,4.63
2023-11-21T02:06:35.426Z,4.18
2023-11-21T02:09:26.949Z,5.85
2023-11-21T02:12:13.436Z,5.40
2023-11-21T02:14:59.432Z,6.95
2023-11-21T02:17:45.492Z,5.85
2023-11-21T02:20:31.228Z,7.05
2023-11-21T02:23:17.643Z,5.10
2023-11-21T02:26:05.577Z,6.85
2023-11-21T02:28:52.440Z,10.40
2023-11-21T02:31:46.816Z,13.90
2023-11-21T02:34:33.564Z,23.52
2023-11-21T02:37:19.166Z,24.77
2023-11-21T02:40:07.723Z,21.02
2023-11-21T02:42:53.956Z,22.15
2023-11-21T02:45:42.369Z,12.80
2023-11-21T02:48:27.922Z,13.93
2023-11-21T02:51:14.559Z,11.00
2023-11-21T02:54:00.127Z,9.32
2023-11-21T02:56:47.320Z,13.27
2023-11-21T02:59:32.767Z,10.02
2023-11-21T03:02:18.642Z,9.20
2023-11-21T03:05:06.159Z,9.10
2023-11-21T03:07:51.933Z,6.88
2023-11-21T03:10:39.350Z,6.15
2023-11-21T03:13:25.065Z,5.75
2023-11-21T03:16:12.174Z,8.57
2023-11-21T03:18:58.076Z,7.35
2023-11-21T03:21:43.896Z,6.07
2023-11-21T03:24:30.353Z,5.10
2023-11-21T03:27:15.915Z,6.47
2023-11-21T03:30:05.262Z,4.78
2023-11-21T03:32:50.996Z,5.43
2023-11-21T03:35:37.902Z,5.47
2023-11-21T03:38:23.797Z,9.60
2023-11-21T03:41:33.204Z,5.30
2023-11-21T03:44:19.296Z,5.13
2023-11-21T03:47:05.240Z,5.00
2023-11-21T03:49:51.442Z,4.97
2023-11-21T03:52:37.444Z,6.38
2023-11-21T03:55:24.492Z,7.80
2023-11-21T03:58:09.997Z,4.00
2023-11-21T04:00:56.243Z,4.40
2023-11-21T04:03:42.228Z,5.25
2023-11-21T04:06:28.171Z,4.35
2023-11-21T04:09:14.552Z,4.22
2023-11-21T04:12:01.506Z,4.70
2023-11-21T04:14:47.212Z,3.85
2023-11-21T04:17:33.290Z,4.22
2023-11-21T04:20:19.308Z,4.22
2023-11-21T04:23:05.130Z,2.90
2023-11-21T04:26:10.921Z,5.43
2023-11-21T04:28:57.407Z,4.80
2023-11-21T04:31:43.382Z,3.85
2023-11-21T04:34:28.810Z,3.92
2023-11-21T04:37:14.690Z,4.22
2023-11-21T04:40:00.531Z,6.03
2023-11-21T04:42:47.648Z,9.15
2023-11-21T04:45:33.773Z,9.02
2023-11-21T04:48:19.793Z,11.48
2023-11-21T04:51:06.658Z,12.13
2023-11-21T04:53:53.257Z,9.18
2023-11-21T04:56:39.211Z,5.25
2023-11-21T04:59:26.314Z,5.18
2023-11-21T05:02:27.740Z,6.18
2023-11-21T05:05:19.408Z,4.85
2023-11-21T05:08:05.794Z,6.00
2023-11-21T05:10:53.365Z,6.07
2023-11-21T05:13:40.304Z,6.18
2023-11-21T05:16:29.160Z,7.60
2023-11-21T05:19:15.184Z,7.18
2023-11-21T05:22:01.995Z,10.90
2023-11-21T05:24:47.597Z,5.65
2023-11-21T05:27:33.543Z,7.72
2023-11-21T05:30:19.462Z,16.67
2023-11-21T05:33:05.045Z,8.95
2023-11-21T05:35:51.269Z,7.05
2023-11-21T05:38:37.742Z,11.75
2023-11-21T05:41:23.161Z,10.40
2023-11-21T05:44:08.923Z,7.50
2023-11-21T05:46:55.192Z,10.30
2023-11-21T05:49:41.342Z,9.23
2023-11-21T05:52:27.041Z,9.02
2023-11-21T05:55:13.120Z,7.05
2023-11-21T05:57:58.863Z,9.35
2023-11-21T06:00:44.960Z,11.48
2023-11-21T06:03:50.358Z,8.90
2023-11-21T06:06:37.122Z,11.63
2023-11-21T06:09:42.798Z,24.52
2023-11-21T06:12:30.258Z,13.40
2023-11-21T06:15:36.637Z,13.70
2023-11-21T06:18:42.157Z,10.45
2023-11-21T06:21:47.780Z,12.68
2023-11-21T06:24:53.622Z,14.77
2023-11-21T06:28:10.009Z,19.45
2023-11-21T06:30:56.126Z,15.98
2023-11-21T06:33:42.577Z,11.77
2023-11-21T06:36:44.925Z,10.20
2023-11-21T06:39:31.408Z,11.00
2023-11-21T06:42:17.417Z,9.82
2023-11-21T06:45:07.289Z,13.30
2023-11-21T06:48:13.303Z,17.13
2023-11-21T06:51:19.123Z,17.40
2023-11-21T06:54:24.851Z,12.50
2023-11-21T06:57:10.644Z,9.15
2023-11-21T06:59:58.752Z,13.43
2023-11-21T07:02:45.058Z,11.60
2023-11-21T07:05:30.880Z,6.82
2023-11-21T07:08:16.897Z,9.38
2023-11-21T07:11:04.461Z,5.40
2023-11-21T07:13:49.962Z,8.48
2023-11-21T07:16:39.156Z,6.43
2023-11-21T07:19:24.756Z,6.53
2023-11-21T07:22:10.612Z,18.50
2023-11-21T07:24:57.738Z,6.35
2023-11-21T07:27:44.621Z,6.20
2023-11-21T07:30:30.306Z,6.35
2023-11-21T07:33:36.378Z,10.00
2023-11-21T07:36:38.922Z,9.73
2023-11-21T07:42:50.306Z,7.00
2023-11-21T07:45:55.729Z,8.25
2023-11-21T07:49:05.793Z,8.93
2023-11-21T07:52:11.846Z,8.60
2023-11-21T07:55:17.364Z,8.85
2023-11-21T07:58:05.145Z,8.23
2023-11-21T08:00:51.514Z,5.30
2023-11-21T08:03:37.447Z,7.82
2023-11-21T08:06:43.193Z,6.57
2023-11-21T08:09:49.567Z,6.45
2023-11-21T08:12:43.043Z,6.32
2023-11-21T08:15:49.223Z,4.72
2023-11-21T08:18:55.043Z,9.13
2023-11-21T08:22:00.726Z,6.13
2023-11-21T08:25:07.370Z,6.78
2023-11-21T08:28:13.750Z,5.30
2023-11-21T08:31:19.785Z,5.30
2023-11-21T08:34:27.156Z,7.68
2023-11-21T08:37:36.124Z,6.82
2023-11-21T08:40:42.687Z,4.65
2023-11-21T08:43:48.033Z,5.45
2023-11-21T08:46:54.553Z,8.30
2023-11-21T08:49:59.970Z,12.90
2023-11-21T08:53:06.360Z,12.93
2023-11-21T08:56:11.672Z,11.18
2023-11-21T08:59:17.570Z,9.85
2023-11-21T09:02:23.439Z,10.60
2023-11-21T09:05:30.578Z,10.20
2023-11-21T09:08:37.246Z,9.20
2023-11-21T09:11:42.971Z,7.85
2023-11-21T09:14:48.822Z,8.55
2023-11-21T09:17:55.655Z,7.97
2023-11-21T09:21:01.214Z,7.38
2023-11-21T09:24:07.093Z,11.80
2023-11-21T09:27:12.504Z,9.45
2023-11-21T09:30:18.193Z,8.65
2023-11-21T09:33:24.855Z,7.25
2023-11-21T09:36:33.918Z,9.80
2023-11-21T09:39:39.782Z,12.15
2023-11-21T09:42:57.678Z,8.18
2023-11-21T09:46:09.191Z,9.07
2023-11-21T09:49:15.837Z,11.80
2023-11-21T09:52:22.617Z,14.18
2023-11-21T09:55:28.981Z,9.77
2023-11-21T09:58:36.085Z,9.30
2023-11-21T10:01:43.477Z,10.32
2023-11-21T10:04:49.445Z,10.07
2023-11-21T10:07:56.158Z,5.45
2023-11-21T10:11:11.417Z,5.28
2023-11-21T10:14:23.334Z,4.80
2023-11-21T10:17:35.567Z,3.20
2023-11-21T10:20:41.777Z,2.10
2023-11-21T10:23:49.090Z,2.90
2023-11-21T10:26:55.628Z,6.55
2023-11-21T10:30:01.463Z,4.05
2023-11-21T10:33:08.058Z,6.40
2023-11-21T10:36:13.820Z,10.23
2023-11-21T10:39:21.404Z,7.15
2023-11-21T10:42:29.564Z,5.93
2023-11-21T10:45:35.146Z,8.82
2023-11-21T10:48:41.508Z,12.75
2023-11-21T10:51:47.422Z,21.02
2023-11-21T10:54:53.145Z,47.35
2023-11-21T10:57:59.290Z,5.32
2023-11-21T11:01:05.878Z,5.63
2023-11-21T11:04:14.049Z,4.97
2023-11-21T11:07:23.621Z,7.20
2023-11-21T11:10:30.801Z,14.80
2023-11-21T11:13:36.429Z,9.57
2023-11-21T11:16:42.937Z,6.97
2023-11-21T11:19:49.521Z,18.52
2023-11-21T11:23:18.209Z,4.57
2023-11-21T11:26:41.871Z,4.40
2023-11-21T11:30:05.786Z,12.30
2023-11-21T11:33:29.529Z,7.40
2023-11-21T11:36:57.969Z,19.80
2023-11-21T11:40:07.040Z,6.68
2023-11-21T11:43:22.223Z,8.63
2023-11-21T11:46:27.785Z,7.82
2023-11-21T11:49:50.120Z,7.70
2023-11-21T11:53:03.540Z,7.60
2023-11-21T11:56:39.101Z,7.15
2023-11-21T11:59:44.773Z,7.80
2023-11-21T12:02:50.969Z,5.70
2023-11-21T12:05:57.428Z,7.03
2023-11-21T12:09:04.432Z,6.55
2023-11-21T12:12:10.701Z,9.73
2023-11-21T12:14:56.464Z,14.85
2023-11-21T12:17:44.642Z,13.85
2023-11-21T12:20:32.185Z,12.55
2023-11-21T12:23:18.208Z,12.40
2023-11-21T12:26:04.629Z,12.93
2023-11-21T12:28:56.892Z,10.27
2023-11-21T12:31:43.630Z,13.32
2023-11-21T12:34:29.459Z,12.98
2023-11-21T12:37:15.097Z,9.10
2023-11-21T12:40:00.694Z,6.88
2023-11-21T12:42:49.506Z,13.35
2023-11-21T12:45:35.224Z,11.50
2023-11-21T12:48:25.638Z,9.13
2023-11-21T12:54:27.492Z,9.85
2023-11-21T12:57:33.235Z,11.52
2023-11-21T13:00:49.680Z,7.90
2023-11-21T13:03:55.678Z,15.68
2023-11-21T13:07:01.286Z,31.67
2023-11-21T13:10:06.586Z,36.97
2023-11-21T13:13:14.077Z,32.35
2023-11-21T13:16:27.004Z,30.05
2023-11-21T13:19:34.149Z,28.88
2023-11-21T13:22:39.888Z,20.40
2023-11-21T13:25:50.929Z,28.45
2023-11-21T13:29:00.566Z,17.65
2023-11-21T13:32:06.300Z,14.15
2023-11-21T13:35:11.839Z,11.88
2023-11-21T13:38:18.828Z,11.30
2023-11-21T13:41:24.522Z,13.18
2023-11-21T13:44:17.719Z,10.85
2023-11-21T13:47:24.946Z,11.30
2023-11-21T13:50:30.628Z,10.35
2023-11-21T13:53:45.035Z,10.60
2023-11-21T13:56:50.797Z,13.48
2023-11-21T13:59:56.466Z,15.20
2023-11-21T14:03:02.360Z,11.05
2023-11-21T14:05:52.021Z,10.13
2023-11-21T14:08:37.982Z,8.45
2023-11-21T14:11:26.298Z,5.40
2023-11-21T14:14:13.968Z,4.13
2023-11-21T14:17:08.332Z,8.27
2023-11-21T14:19:56.659Z,5.35
2023-11-21T14:22:42.222Z,5.85
2023-11-21T14:25:28.081Z,5.95
2023-11-21T14:28:13.721Z,4.20
2023-11-21T14:31:19.478Z,5.32
2023-11-21T14:34:25.490Z,2.72
2023-11-21T14:37:31.265Z,4.20
2023-11-21T14:40:36.930Z,4.38
2023-11-21T14:43:43.337Z,3.13
2023-11-21T14:46:49.349Z,3.17
2023-11-21T14:49:55.251Z,4.05
2023-11-21T14:53:01.134Z,3.60
2023-11-21T14:55:53.131Z,2.75
2023-11-21T14:58:58.639Z,3.20
2023-11-21T15:01:44.614Z,4.40
2023-11-21T15:04:52.994Z,2.60
2023-11-21T15:08:00.724Z,2.90
2023-11-21T15:11:06.423Z,2.30
2023-11-21T15:14:12.293Z,3.75
2023-11-21T15:17:01.224Z,2.33
2023-11-21T15:19:46.912Z,3.40
2023-11-21T15:22:32.465Z,3.40
2023-11-21T15:25:18.403Z,4.22
2023-11-21T15:28:24.312Z,4.80
2023-11-21T15:31:30.511Z,5.32
2023-11-21T15:34:36.929Z,4.07
2023-11-21T15:37:43.017Z,2.90
2023-11-21T15:40:48.733Z,3.13
2023-11-21T15:43:54.536Z,2.92
2023-11-21T15:46:42.429Z,2.97
2023-11-21T15:49:50.862Z,1.80
2023-11-21T15:52:37.622Z,2.85
2023-11-21T15:56:02.069Z,2.20
2023-11-21T15:58:56.198Z,1.40
2023-11-21T16:01:44.916Z,1.60
2023-11-21T16:04:31.006Z,6.13
2023-11-21T16:07:17.357Z,5.63
2023-11-21T16:10:05.203Z,2.80
2023-11-21T16:12:50.870Z,4.18
2023-11-21T16:15:57.368Z,1.75
2023-11-21T16:19:03.327Z,1.27
2023-11-21T16:21:50.283Z,1.55
2023-11-21T16:24:56.141Z,1.35
2023-11-21T16:28:02.142Z,1.75
2023-11-21T16:31:08.033Z,4.85
2023-11-21T16:34:19.511Z,8.48
2023-11-21T16:37:10.327Z,4.38
2023-11-21T16:40:18.065Z,2.08
2023-11-21T16:43:23.784Z,25.70
2023-11-21T16:46:33.026Z,18.25
2023-11-21T16:49:35.201Z,7.28
2023-11-21T16:52:23.680Z,2.60
2023-11-21T16:55:29.532Z,1.10
2023-11-21T16:58:34.922Z,0.90
2023-11-21T17:01:21.603Z,0.88
2023-11-21T17:04:26.175Z,1.15
2023-11-21T17:07:12.946Z,1.30
2023-11-21T17:10:19.270Z,1.00
2023-11-21T17:13:25.237Z,1.10
2023-11-21T17:17:11.173Z,1.10
2023-11-21T17:20:56.960Z,1.52
2023-11-21T17:24:42.232Z,1.38
2023-11-21T17:28:28.035Z,0.98
2023-11-21T17:32:16.375Z,1.17
2023-11-21T17:36:02.615Z,1.40
2023-11-21T17:39:38.790Z,1.20
2023-11-21T17:42:44.627Z,2.03
2023-11-21T17:45:50.485Z,1.52
2023-11-21T17:48:56.467Z,1.80
2023-11-21T17:52:02.354Z,1.80
2023-11-21T17:55:08.131Z,1.63
2023-11-21T17:58:13.635Z,1.88
2023-11-21T18:01:19.250Z,2.35
2023-11-21T18:04:26.129Z,4.60
2023-11-21T18:07:31.954Z,6.93
2023-11-21T18:10:37.756Z,9.20
2023-11-21T18:13:43.301Z,9.77
2023-11-21T18:16:49.110Z,11.32
2023-11-21T18:19:55.246Z,20.60
2023-11-21T18:23:00.794Z,13.77
2023-11-21T18:26:06.730Z,13.73
2023-11-21T18:29:12.468Z,11.15
2023-11-21T18:32:18.687Z,14.40
2023-11-21T18:35:25.004Z,10.05
2023-11-21T18:38:30.926Z,6.80
2023-11-21T18:41:43.638Z,5.75
2023-11-21T18:44:57.038Z,14.63
2023-11-21T18:48:45.287Z,7.93
2023-11-21T18:52:31.060Z,10.23
2023-11-21T18:56:18.561Z,12.75
2023-11-21T19:00:05.514Z,10.75
2023-11-21T19:03:58.517Z,12.35
2023-11-21T19:07:47.995Z,16.98
2023-11-21T19:11:34.090Z,10.18
2023-11-21T19:15:22.804Z,11.68
2023-11-21T19:19:08.579Z,8.93
2023-11-21T19:22:54.565Z,10.98
2023-11-21T19:26:00.298Z,27.25
2023-11-21T19:29:06.699Z,36.15
2023-11-21T19:32:12.363Z,28.60
2023-11-21T19:35:18.027Z,24.05
2023-11-21T19:38:23.685Z,28.98
2023-11-21T19:41:42.131Z,39.65
2023-11-21T19:44:50.973Z,43.67
2023-11-21T19:47:57.294Z,35.35
2023-11-21T19:51:02.996Z,34.15
2023-11-21T19:54:09.643Z,46.65
2023-11-21T19:57:15.735Z,41.45
2023-11-21T20:00:21.604Z,38.05
2023-11-21T20:03:27.231Z,42.08
2023-11-21T20:06:36.910Z,34.75
2023-11-21T20:09:45.039Z,22.85
2023-11-21T20:12:55.847Z,30.88
2023-11-21T20:16:04.543Z,19.42
2023-11-21T20:19:10.484Z,16.35
2023-11-21T20:22:18.767Z,30.35
2023-11-21T20:25:05.952Z,30.48
2023-11-21T20:27:51.612Z,20.98
2023-11-21T20:30:58.411Z,20.33
2023-11-21T20:33:44.420Z,25.60
2023-11-21T20:36:50.455Z,32.42
2023-11-21T20:39:56.495Z,20.48
2023-11-21T20:43:05.140Z,29.90
2023-11-21T20:46:10.707Z,46.47
2023-11-21T20:49:16.512Z,52.83
2023-11-21T20:52:22.038Z,45.05
2023-11-21T20:55:28.123Z,36.95
2023-11-21T20:58:33.936Z,30.75
2023-11-21T21:01:39.812Z,41.90
2023-11-21T21:04:45.575Z,22.25
2023-11-21T21:07:31.998Z,20.90
2023-11-21T21:10:17.920Z,32.20
2023-11-21T21:13:03.827Z,33.45
2023-11-21T21:15:50.543Z,43.58
2023-11-21T21:18:36.297Z,41.53
2023-11-21T21:21:23.348Z,31.33
2023-11-21T21:24:29.258Z,33.17
2023-11-21T21:27:35.005Z,40.00
2023-11-21T21:30:41.338Z,35.13
2023-11-21T21:33:47.072Z,38.53
2023-11-21T21:36:52.644Z,59.67
2023-11-21T21:39:58.680Z,44.90
2023-11-21T21:43:05.405Z,33.63
2023-11-21T21:46:11.170Z,46.63
2023-11-21T21:49:16.693Z,37.35
2023-11-21T21:52:23.150Z,17.33
2023-11-21T21:55:35.830Z,31.13
2023-11-21T21:58:41.139Z,21.50
2023-11-21T22:01:47.478Z,13.02
2023-11-21T22:04:53.921Z,19.88
2023-11-21T22:08:01.160Z,12.55
2023-11-21T22:11:07.333Z,19.30
2023-11-21T22:14:13.274Z,35.85
2023-11-21T22:17:20.531Z,16.77
2023-11-21T22:20:27.253Z,15.32
2023-11-21T22:23:33.294Z,28.20
2023-11-21T22:26:39.280Z,13.88
2023-11-21T22:29:45.028Z,13.43
2023-11-21T22:32:51.407Z,15.20
2023-11-21T22:35:56.829Z,14.13
2023-11-21T22:39:04.146Z,18.08
2023-11-21T22:42:09.992Z,21.23
2023-11-21T22:45:15.955Z,26.77
2023-11-21T22:48:21.965Z,17.70
2023-11-21T22:51:27.771Z,25.25
2023-11-21T22:54:33.466Z,19.60
2023-11-21T22:57:39.180Z,21.45
2023-11-21T23:00:44.560Z,15.65
2023-11-21T23:03:50.510Z,16.23
2023-11-21T23:06:57.150Z,17.05
2023-11-21T23:10:03.032Z,12.90
2023-11-21T23:13:08.891Z,17.25
2023-11-21T23:16:15.020Z,15.00
2023-11-21T23:19:20.790Z,14.35
2023-11-21T23:22:27.115Z,21.75
2023-11-21T23:25:32.817Z,34.10
2023-11-21T23:28:41.599Z,35.33
2023-11-21T23:31:47.334Z,32.25
2023-11-21T23:34:53.016Z,18.40
2023-11-21T23:37:58.815Z,17.88
2023-11-21T23:41:04.385Z,18.38
2023-11-21T23:44:12.948Z,20.20
2023-11-21T23:47:00.423Z,21.35
2023-11-21T23:49:48.400Z,23.50
2023-11-21T23:52:35.256Z,25.48
2023-11-21T23:55:20.972Z,18.48
2023-11-21T23:58:26.643Z,36.67
